Time;durP1;ratioP1;P1;durP2;ratioP2;P2;SDS_P1;SDS_P2;PMS_P1;PMS_P2;Temp;Humidity;BMP_temperature;BMP_pressure;BME280_temperature;BME280_humidity;BME280_pressure;Samples;Min_cycle;Max_cycle;Signal;HPM_P1;HPM_P2
2023/05/20 00:01:21;;;;;;;5.17;4.67;;;;;;;;;;5082916;27;20682;-63
2023/05/20 00:03:50;;;;;;;5.70;4.80;;;;;;;;;;5089760;27;20252;-62
2023/05/20 00:06:20;;;;;;;6.37;4.40;;;;;;;;;;5091962;27;20654;-61
2023/05/20 00:08:48;;;;;;;7.67;4.93;;;;;;;;;;5094657;27;20219;-62
2023/05/20 00:11:15;;;;;;;7.77;4.90;;;;;;;;;;5103843;27;20222;-63
2023/05/20 00:13:44;;;;;;;4.90;4.27;;;;;;;;;;5085969;27;20257;-62
2023/05/20 00:16:12;;;;;;;6.57;4.60;;;;;;;;;;5085038;27;20246;-63
2023/05/20 00:18:40;;;;;;;5.97;4.50;;;;;;;;;;5083574;27;20240;-62
2023/05/20 00:21:08;;;;;;;7.30;4.50;;;;;;;;;;5093352;27;20200;-62
2023/05/20 00:23:38;;;;;;;8.90;4.43;;;;;;;;;;5095954;27;20232;-63
2023/05/20 00:26:20;;;;;;;5.37;4.43;;;;;;;;;;5103357;27;20666;-62
2023/05/20 00:28:55;;;;;;;6.33;4.60;;;;;;;;;;5100269;27;20281;-62
2023/05/20 00:31:23;;;;;;;5.47;4.50;;;;;;;;;;5099576;27;21045;-62
2023/05/20 00:33:50;;;;;;;5.23;4.57;;;;;;;;;;5096619;27;20239;-62
2023/05/20 00:36:18;;;;;;;6.33;4.37;;;;;;;;;;5083014;27;20207;-62
2023/05/20 00:38:45;;;;;;;5.80;4.27;;;;;;;;;;5088238;27;20293;-63
2023/05/20 00:41:15;;;;;;;7.50;4.97;;;;;;;;;;5101803;27;20360;-63
2023/05/20 00:43:46;;;;;;;6.40;4.50;;;;;;;;;;5098919;27;20225;-63
2023/05/20 00:46:21;;;;;;;6.53;4.47;;;;;;;;;;5097818;27;20208;-63
2023/05/20 00:48:50;;;;;;;5.20;4.70;;;;;;;;;;5090538;27;20737;-64
2023/05/20 00:51:20;;;;;;;7.80;4.37;;;;;;;;;;5101911;27;20289;-62
2023/05/20 00:53:56;;;;;;;6.80;4.40;;;;;;;;;;5115140;27;21044;-61
2023/05/20 00:56:29;;;;;;;4.90;4.47;;;;;;;;;;5122298;27;20204;-62
2023/05/20 00:59:00;;;;;;;6.80;4.60;;;;;;;;;;5098839;27;20224;-64
2023/05/20 01:01:27;;;;;;;4.60;4.20;;;;;;;;;;5092449;27;20247;-63
2023/05/20 01:03:55;;;;;;;7.17;4.47;;;;;;;;;;5076837;28;20340;-62
2023/05/20 01:06:22;;;;;;;7.13;4.57;;;;;;;;;;5102995;27;20846;-62
2023/05/20 01:08:52;;;;;;;7.33;4.20;;;;;;;;;;5097518;27;20212;-64
2023/05/20 01:11:19;;;;;;;6.50;4.47;;;;;;;;;;5084177;27;20228;-61
2023/05/20 01:13:50;;;;;;;6.67;4.50;;;;;;;;;;5087260;27;20208;-63
2023/05/20 01:16:22;;;;;;;6.33;4.30;;;;;;;;;;5088655;27;20551;-63
2023/05/20 01:18:54;;;;;;;10.77;4.40;;;;;;;;;;5096719;27;20820;-62
2023/05/20 01:21:28;;;;;;;5.37;4.40;;;;;;;;;;5092386;27;20687;-63
2023/05/20 01:23:56;;;;;;;4.37;3.97;;;;;;;;;;5083104;27;20224;-62
2023/05/20 01:26:29;;;;;;;4.80;4.30;;;;;;;;;;5104207;27;20253;-63
2023/05/20 01:29:03;;;;;;;5.57;4.00;;;;;;;;;;5106146;27;20216;-63
2023/05/20 01:31:32;;;;;;;4.77;4.37;;;;;;;;;;5085559;28;20269;-63
2023/05/20 01:34:00;;;;;;;4.63;3.93;;;;;;;;;;5093715;27;20215;-63
2023/05/20 01:36:30;;;;;;;5.77;4.57;;;;;;;;;;5096703;28;20215;-63
2023/05/20 01:39:04;;;;;;;6.07;4.67;;;;;;;;;;5101321;27;20349;-63
2023/05/20 01:41:42;;;;;;;5.87;4.73;;;;;;;;;;5095797;27;20236;-63
2023/05/20 01:44:10;;;;;;;5.57;4.50;;;;;;;;;;5099764;27;20224;-63
2023/05/20 01:46:37;;;;;;;4.77;4.23;;;;;;;;;;5097309;27;20223;-63
2023/05/20 01:49:05;;;;;;;5.07;4.33;;;;;;;;;;5091924;27;20288;-63
2023/05/20 01:51:34;;;;;;;5.10;4.57;;;;;;;;;;5091488;27;20282;-64
2023/05/20 01:54:02;;;;;;;6.40;4.53;;;;;;;;;;5097128;27;20212;-62
2023/05/20 01:56:34;;;;;;;4.33;4.00;;;;;;;;;;5091207;27;20200;-63
2023/05/20 01:59:04;;;;;;;6.87;4.53;;;;;;;;;;5090074;28;20316;-63
2023/05/20 02:01:34;;;;;;;5.33;4.30;;;;;;;;;;5100847;27;20212;-63
2023/05/20 02:04:03;;;;;;;5.33;4.50;;;;;;;;;;5099359;27;20230;-63
2023/05/20 02:06:32;;;;;;;4.80;3.97;;;;;;;;;;5095429;28;20204;-62
2023/05/20 02:09:02;;;;;;;5.50;4.40;;;;;;;;;;5090930;27;20237;-62
2023/05/20 02:11:31;;;;;;;5.37;4.30;;;;;;;;;;5093550;28;20200;-63
2023/05/20 02:14:06;;;;;;;7.10;5.00;;;;;;;;;;5086057;27;20294;-63
2023/05/20 02:16:34;;;;;;;4.67;4.27;;;;;;;;;;5110371;27;20203;-64
2023/05/20 02:19:11;;;;;;;7.97;4.80;;;;;;;;;;5097846;28;20664;-63
2023/05/20 02:21:41;;;;;;;5.40;4.30;;;;;;;;;;5095321;28;20200;-64
2023/05/20 02:24:12;;;;;;;5.23;4.67;;;;;;;;;;5096101;28;20241;-63
2023/05/20 02:26:43;;;;;;;6.17;4.40;;;;;;;;;;5101925;28;20204;-63
2023/05/20 02:29:11;;;;;;;6.37;4.47;;;;;;;;;;5098033;28;20227;-67
2023/05/20 02:31:40;;;;;;;5.50;4.93;;;;;;;;;;5086435;28;20206;-63
2023/05/20 02:34:10;;;;;;;5.70;4.93;;;;;;;;;;5085990;28;20208;-64
2023/05/20 02:36:41;;;;;;;5.60;5.10;;;;;;;;;;5099094;28;20256;-64
2023/05/20 02:39:11;;;;;;;6.10;5.50;;;;;;;;;;5091460;28;20227;-62
2023/05/20 02:41:42;;;;;;;6.40;5.80;;;;;;;;;;5095342;28;20295;-63
2023/05/20 02:44:12;;;;;;;6.20;5.60;;;;;;;;;;5080664;28;20227;-63
2023/05/20 02:46:52;;;;;;;6.07;5.50;;;;;;;;;;5099377;28;20206;-64
2023/05/20 02:49:23;;;;;;;8.13;6.13;;;;;;;;;;5099291;27;20303;-63
2023/05/20 02:51:51;;;;;;;6.17;5.67;;;;;;;;;;5100130;28;20233;-63
2023/05/20 02:54:21;;;;;;;7.13;5.90;;;;;;;;;;5098952;27;20211;-64
2023/05/20 02:56:50;;;;;;;7.87;5.97;;;;;;;;;;5092186;27;20284;-63
2023/05/20 02:59:19;;;;;;;6.40;5.57;;;;;;;;;;5101750;27;20696;-64
2023/05/20 03:01:48;;;;;;;6.53;5.93;;;;;;;;;;5104430;27;20235;-63
2023/05/20 03:04:17;;;;;;;6.50;5.90;;;;;;;;;;5085902;28;20231;-62
2023/05/20 03:06:46;;;;;;;6.93;6.33;;;;;;;;;;5097758;27;20856;-62
2023/05/20 03:09:20;;;;;;;6.50;6.00;;;;;;;;;;5095251;27;20219;-62
2023/05/20 03:11:54;;;;;;;6.73;5.73;;;;;;;;;;5098820;27;20215;-62
2023/05/20 03:14:45;;;;;;;7.20;6.50;;;;;;;;;;5102630;27;20212;-63
2023/05/20 03:17:14;;;;;;;7.30;5.97;;;;;;;;;;5082186;27;20212;-62
2023/05/20 03:19:42;;;;;;;7.23;6.63;;;;;;;;;;5104663;27;20208;-62
2023/05/20 03:22:10;;;;;;;7.10;6.40;;;;;;;;;;5107197;27;20287;-64
2023/05/20 03:24:37;;;;;;;6.77;6.17;;;;;;;;;;5101925;27;20253;-62
2023/05/20 03:27:06;;;;;;;7.47;6.13;;;;;;;;;;5101291;27;20231;-62
2023/05/20 03:29:35;;;;;;;7.40;6.70;;;;;;;;;;5105034;27;20239;-62
2023/05/20 03:32:04;;;;;;;7.63;6.93;;;;;;;;;;5100822;27;20234;-62
2023/05/20 03:34:37;;;;;;;7.80;7.00;;;;;;;;;;5092604;27;20197;-63
2023/05/20 03:37:06;;;;;;;9.57;7.40;;;;;;;;;;5099853;27;20576;-63
2023/05/20 03:39:35;;;;;;;7.67;6.97;;;;;;;;;;5086037;27;20229;-63
2023/05/20 03:42:05;;;;;;;8.23;7.33;;;;;;;;;;5098627;27;20658;-63
2023/05/20 03:44:33;;;;;;;8.10;7.30;;;;;;;;;;5101319;28;20217;-61
2023/05/20 03:47:02;;;;;;;9.07;7.97;;;;;;;;;;5130666;27;20238;-62
2023/05/20 03:49:31;;;;;;;9.67;7.80;;;;;;;;;;5097031;27;20216;-63
2023/05/20 03:52:02;;;;;;;10.30;8.03;;;;;;;;;;5109629;27;20561;-63
2023/05/20 03:54:35;;;;;;;12.07;8.33;;;;;;;;;;5108298;27;20204;-66
2023/05/20 03:57:04;;;;;;;8.40;7.60;;;;;;;;;;5105836;27;20196;-65
2023/05/20 03:59:31;;;;;;;8.70;7.90;;;;;;;;;;5099401;27;21221;-62
2023/05/20 04:02:03;;;;;;;9.23;7.13;;;;;;;;;;5110603;27;20216;-61
2023/05/20 04:04:32;;;;;;;9.73;8.77;;;;;;;;;;5100337;27;20548;-63
2023/05/20 04:06:59;;;;;;;9.20;8.30;;;;;;;;;;5099295;27;20255;-64
2023/05/20 04:09:27;;;;;;;9.93;8.90;;;;;;;;;;5102909;27;20467;-64
2023/05/20 04:11:54;;;;;;;9.47;8.50;;;;;;;;;;5087542;27;20633;-62
2023/05/20 04:14:22;;;;;;;8.87;7.97;;;;;;;;;;5105160;27;20268;-63
2023/05/20 04:16:50;;;;;;;8.23;7.43;;;;;;;;;;5093175;27;20215;-62
2023/05/20 04:19:18;;;;;;;9.43;7.40;;;;;;;;;;5089933;28;20244;-62
2023/05/20 04:21:57;;;;;;;20.83;15.30;;;;;;;;;;5069462;27;20200;-62
2023/05/20 04:24:32;;;;;;;14.10;12.60;;;;;;;;;;5100302;27;20322;-63
2023/05/20 04:27:01;;;;;;;9.40;8.50;;;;;;;;;;5099585;27;20260;-63
2023/05/20 04:29:33;;;;;;;8.53;7.73;;;;;;;;;;5082906;27;20717;-62
2023/05/20 04:32:35;;;;;;;9.03;8.13;;;;;;;;;;5132048;27;20577;-62
2023/05/20 04:35:10;;;;;;;8.20;7.40;;;;;;;;;;5110778;27;20565;-61
2023/05/20 04:37:38;;;;;;;9.13;8.23;;;;;;;;;;5111029;27;20230;-63
2023/05/20 04:40:08;;;;;;;9.30;8.40;;;;;;;;;;5114196;27;20886;-62
2023/05/20 04:42:37;;;;;;;8.80;7.97;;;;;;;;;;5118714;27;20253;-63
2023/05/20 04:45:07;;;;;;;8.90;8.03;;;;;;;;;;5114905;27;20283;-61
2023/05/20 04:47:37;;;;;;;9.10;8.20;;;;;;;;;;5095343;27;20238;-62
2023/05/20 04:50:12;;;;;;;11.17;10.07;;;;;;;;;;5110050;27;20242;-64
2023/05/20 04:52:44;;;;;;;11.17;9.97;;;;;;;;;;5109918;27;20206;-63
2023/05/20 04:55:14;;;;;;;10.03;9.03;;;;;;;;;;5110266;27;20208;-63
2023/05/20 04:57:44;;;;;;;9.63;8.80;;;;;;;;;;5116437;27;20748;-63
2023/05/20 05:00:14;;;;;;;9.37;8.47;;;;;;;;;;5112494;27;20199;-60
2023/05/20 05:02:53;;;;;;;10.50;9.40;;;;;;;;;;5115366;27;20284;-61
2023/05/20 05:05:41;;;;;;;11.37;8.33;;;;;;;;;;5117344;27;20211;-63
2023/05/20 05:08:23;;;;;;;10.20;9.10;;;;;;;;;;5116736;28;20712;-64
2023/05/20 05:10:52;;;;;;;9.67;8.67;;;;;;;;;;5123377;27;20223;-61
2023/05/20 05:13:22;;;;;;;8.90;8.10;;;;;;;;;;5118985;27;20286;-62
2023/05/20 05:16:01;;;;;;;9.70;8.70;;;;;;;;;;5112828;28;20219;-62
2023/05/20 05:18:31;;;;;;;9.77;8.53;;;;;;;;;;5123576;28;20219;-63
2023/05/20 05:21:04;;;;;;;9.70;8.70;;;;;;;;;;5119334;27;20208;-63
2023/05/20 05:23:33;;;;;;;11.10;8.10;;;;;;;;;;5121706;28;20567;-63
2023/05/20 05:26:02;;;;;;;11.70;10.37;;;;;;;;;;5120036;27;20573;-61
2023/05/20 05:28:37;;;;;;;11.20;10.00;;;;;;;;;;5120511;28;20230;-61
2023/05/20 05:31:16;;;;;;;10.60;9.50;;;;;;;;;;5138560;27;20219;-64
2023/05/20 05:33:46;;;;;;;12.53;10.33;;;;;;;;;;5119058;27;20196;-62
2023/05/20 05:36:15;;;;;;;14.63;10.93;;;;;;;;;;5124664;28;20192;-63
2023/05/20 05:38:46;;;;;;;16.97;11.63;;;;;;;;;;5119726;27;20216;-64
2023/05/20 05:41:14;;;;;;;15.13;12.10;;;;;;;;;;5123188;28;20212;-61
2023/05/20 05:43:42;;;;;;;13.37;11.60;;;;;;;;;;5106814;28;20200;-63
2023/05/20 05:46:09;;;;;;;14.47;11.90;;;;;;;;;;5104530;28;20204;-63
2023/05/20 05:48:37;;;;;;;12.93;11.47;;;;;;;;;;5108029;28;20244;-63
2023/05/20 05:51:06;;;;;;;15.03;12.83;;;;;;;;;;5104247;28;20216;-63
2023/05/20 05:53:34;;;;;;;17.50;13.40;;;;;;;;;;5105315;28;20633;-63
2023/05/20 05:56:02;;;;;;;18.67;13.10;;;;;;;;;;5107603;28;20286;-63
2023/05/20 05:58:32;;;;;;;19.37;13.73;;;;;;;;;;5107453;28;20285;-63
2023/05/20 06:01:02;;;;;;;18.37;13.23;;;;;;;;;;5106842;28;20678;-63
2023/05/20 06:03:31;;;;;;;20.23;13.00;;;;;;;;;;5101868;28;20652;-64
2023/05/20 06:06:13;;;;;;;16.53;12.43;;;;;;;;;;5106747;28;20216;-64
2023/05/20 06:08:44;;;;;;;14.70;11.97;;;;;;;;;;5104858;28;20639;-63
2023/05/20 06:11:15;;;;;;;13.97;11.80;;;;;;;;;;5104725;27;20314;-64
2023/05/20 06:13:43;;;;;;;12.23;10.93;;;;;;;;;;5105468;28;20237;-62
2023/05/20 06:16:10;;;;;;;13.17;11.13;;;;;;;;;;5102389;28;20196;-61
2023/05/20 06:18:37;;;;;;;13.73;11.10;;;;;;;;;;5103816;28;20252;-63
2023/05/20 06:21:05;;;;;;;14.00;11.13;;;;;;;;;;5098615;28;20204;-63
2023/05/20 06:23:33;;;;;;;12.37;11.07;;;;;;;;;;5098650;28;20215;-63
2023/05/20 06:26:00;;;;;;;13.60;11.63;;;;;;;;;;5100885;27;20203;-61
2023/05/20 06:28:28;;;;;;;11.63;10.50;;;;;;;;;;5102868;28;20235;-63
2023/05/20 06:30:55;;;;;;;11.90;10.33;;;;;;;;;;5099539;28;20228;-62
2023/05/20 06:33:24;;;;;;;11.13;9.93;;;;;;;;;;5107478;28;20200;-63
2023/05/20 06:36:06;;;;;;;10.53;9.43;;;;;;;;;;5099776;28;20196;-63
2023/05/20 06:38:34;;;;;;;10.40;9.40;;;;;;;;;;5107935;28;21065;-63
2023/05/20 06:41:04;;;;;;;9.87;8.97;;;;;;;;;;5106355;28;20211;-62
2023/05/20 06:43:33;;;;;;;10.17;9.07;;;;;;;;;;5102816;28;20212;-64
2023/05/20 06:46:00;;;;;;;10.53;8.70;;;;;;;;;;5103543;27;20600;-61
2023/05/20 06:48:28;;;;;;;9.67;8.63;;;;;;;;;;5107542;27;20259;-63
2023/05/20 06:50:55;;;;;;;9.60;8.67;;;;;;;;;;5097604;28;20276;-63
2023/05/20 06:53:23;;;;;;;10.00;9.00;;;;;;;;;;5099589;28;20232;-62
2023/05/20 06:55:54;;;;;;;10.53;9.43;;;;;;;;;;5105047;28;20211;-63
2023/05/20 06:58:21;;;;;;;10.20;9.13;;;;;;;;;;5095239;28;20231;-63
2023/05/20 07:00:49;;;;;;;10.40;9.33;;;;;;;;;;5094347;28;20204;-62
2023/05/20 07:03:16;;;;;;;10.10;8.67;;;;;;;;;;5099110;27;20426;-64
2023/05/20 07:05:44;;;;;;;10.07;9.07;;;;;;;;;;5100414;28;20281;-62
2023/05/20 07:08:11;;;;;;;9.50;8.23;;;;;;;;;;5107648;27;20273;-63
2023/05/20 07:10:39;;;;;;;8.90;8.03;;;;;;;;;;5118466;28;20203;-62
2023/05/20 07:13:10;;;;;;;9.20;8.30;;;;;;;;;;5105066;27;20662;-63
2023/05/20 07:15:38;;;;;;;10.30;7.90;;;;;;;;;;5105478;28;20586;-63
2023/05/20 07:18:05;;;;;;;8.97;8.07;;;;;;;;;;5098515;28;20306;-62
2023/05/20 07:20:33;;;;;;;7.70;7.00;;;;;;;;;;5106872;28;20298;-63
2023/05/20 07:23:02;;;;;;;8.70;7.80;;;;;;;;;;5104221;28;20218;-63
2023/05/20 07:25:30;;;;;;;8.65;7.85;;;;;;;;;;5106429;27;20661;-62
2023/05/20 07:27:59;;;;;;;8.18;7.47;;;;;;;;;;5093451;27;20278;-63
2023/05/20 07:30:26;;;;;;;8.07;7.32;;;;;;;;;;5094643;27;20250;-61
2023/05/20 07:32:54;;;;;;;8.38;7.60;;;;;;;;;;5107019;27;20297;-63
2023/05/20 07:35:23;;;;;;;8.27;7.47;;;;;;;;;;5098522;28;20291;-63
2023/05/20 07:37:51;;;;;;;8.48;7.28;;;;;;;;;;5089122;27;20212;-61
2023/05/20 07:40:18;;;;;;;7.88;7.18;;;;;;;;;;5085705;27;20414;-64
2023/05/20 07:42:49;;;;;;;8.32;7.63;;;;;;;;;;5095548;27;20204;-63
2023/05/20 07:45:21;;;;;;;9.63;7.78;;;;;;;;;;5111159;27;20215;-63
2023/05/20 07:47:49;;;;;;;8.52;7.43;;;;;;;;;;5090244;28;20224;-62
2023/05/20 07:50:16;;;;;;;8.13;7.32;;;;;;;;;;5078237;27;20235;-65
2023/05/20 07:52:44;;;;;;;8.38;7.68;;;;;;;;;;5091808;27;20212;-64
2023/05/20 07:55:23;;;;;;;8.65;7.75;;;;;;;;;;5090826;28;20275;-63
2023/05/20 07:57:52;;;;;;;9.18;8.27;;;;;;;;;;5080583;28;20343;-62
2023/05/20 08:00:19;;;;;;;10.43;7.50;;;;;;;;;;5080382;28;20207;-63
2023/05/20 08:02:48;;;;;;;7.97;7.07;;;;;;;;;;5097321;27;20236;-64
2023/05/20 08:05:18;;;;;;;8.77;7.30;;;;;;;;;;5098338;28;20217;-64
2023/05/20 08:07:58;;;;;;;7.97;7.28;;;;;;;;;;5094486;28;20763;-62
2023/05/20 08:10:26;;;;;;;7.93;7.28;;;;;;;;;;5088041;28;21174;-63
2023/05/20 08:12:53;;;;;;;8.40;7.57;;;;;;;;;;5082845;28;20243;-62
2023/05/20 08:15:21;;;;;;;8.10;7.40;;;;;;;;;;5091061;28;20197;-63
2023/05/20 08:17:48;;;;;;;8.10;7.40;;;;;;;;;;5081434;28;20754;-63
2023/05/20 08:20:17;;;;;;;7.25;6.65;;;;;;;;;;5073078;28;20204;-64
2023/05/20 08:22:44;;;;;;;8.05;7.25;;;;;;;;;;5082606;28;20226;-62
2023/05/20 08:25:13;;;;;;;7.65;6.95;;;;;;;;;;5075276;28;20212;-63
2023/05/20 08:27:54;;;;;;;8.20;7.20;;;;;;;;;;5079404;28;21602;-65
2023/05/20 08:30:21;;;;;;;7.45;6.80;;;;;;;;;;5072126;28;20220;-64
2023/05/20 08:32:50;;;;;;;8.02;6.85;;;;;;;;;;5080896;28;20884;-63
2023/05/20 08:35:18;;;;;;;7.82;7.03;;;;;;;;;;5089041;28;20762;-64
2023/05/20 08:37:52;;;;;;;7.55;6.85;;;;;;;;;;5087054;28;20263;-64
2023/05/20 08:40:22;;;;;;;7.32;6.70;;;;;;;;;;5093617;28;20196;-63
2023/05/20 08:42:52;;;;;;;7.72;7.00;;;;;;;;;;5071892;28;20208;-63
2023/05/20 08:45:25;;;;;;;6.85;6.30;;;;;;;;;;5080817;28;20773;-64
2023/05/20 08:47:52;;;;;;;7.13;6.43;;;;;;;;;;5077440;28;20233;-62
2023/05/20 08:50:21;;;;;;;7.50;6.80;;;;;;;;;;5087566;28;20205;-62
2023/05/20 08:52:48;;;;;;;7.60;6.90;;;;;;;;;;5089582;28;20276;-62
2023/05/20 08:55:24;;;;;;;7.00;6.40;;;;;;;;;;5090404;28;20207;-62
2023/05/20 08:57:53;;;;;;;8.25;7.47;;;;;;;;;;5103471;28;20227;-62
2023/05/20 09:00:25;;;;;;;7.53;6.82;;;;;;;;;;5112461;27;20208;-63
2023/05/20 09:02:53;;;;;;;8.43;7.25;;;;;;;;;;5083804;28;20295;-63
2023/05/20 09:05:22;;;;;;;8.93;7.47;;;;;;;;;;5089375;28;20289;-63
2023/05/20 09:07:49;;;;;;;7.93;7.15;;;;;;;;;;5092797;28;20568;-64
2023/05/20 09:10:17;;;;;;;7.22;6.63;;;;;;;;;;5093558;28;20249;-63
2023/05/20 09:12:44;;;;;;;7.57;6.80;;;;;;;;;;5098075;28;20224;-63
2023/05/20 09:15:12;;;;;;;8.55;7.85;;;;;;;;;;5093873;28;20454;-64
2023/05/20 09:17:39;;;;;;;7.95;6.78;;;;;;;;;;5093069;27;20281;-63
2023/05/20 09:20:08;;;;;;;7.57;6.88;;;;;;;;;;5095615;28;20198;-63
2023/05/20 09:22:35;;;;;;;7.70;7.03;;;;;;;;;;5100774;27;20204;-62
2023/05/20 09:25:03;;;;;;;7.55;6.90;;;;;;;;;;5097747;28;20292;-63
2023/05/20 09:27:30;;;;;;;7.35;6.65;;;;;;;;;;5101821;28;20276;-62
2023/05/20 09:29:57;;;;;;;7.68;7.07;;;;;;;;;;5093316;27;20219;-62
2023/05/20 09:32:27;;;;;;;7.97;7.20;;;;;;;;;;5093441;28;20231;-63
2023/05/20 09:34:54;;;;;;;7.57;6.80;;;;;;;;;;5099821;27;20254;-63
2023/05/20 09:37:24;;;;;;;8.20;6.65;;;;;;;;;;5098955;27;20201;-63
2023/05/20 09:39:51;;;;;;;7.30;6.70;;;;;;;;;;5105128;28;20212;-63
2023/05/20 09:42:22;;;;;;;7.82;7.03;;;;;;;;;;5097850;27;20297;-63
2023/05/20 09:44:50;;;;;;;7.13;6.53;;;;;;;;;;5102866;27;20213;-63
2023/05/20 09:47:18;;;;;;;7.65;6.35;;;;;;;;;;5107850;28;20224;-63
2023/05/20 09:49:51;;;;;;;7.82;7.03;;;;;;;;;;5105971;28;20204;-64
2023/05/20 09:55:29;;;;;;;8.25;6.28;;;;;;;;;;5088761;28;20204;-64
2023/05/20 09:57:58;;;;;;;6.90;6.28;;;;;;;;;;5081615;28;20644;-63
2023/05/20 10:00:27;;;;;;;7.38;6.30;;;;;;;;;;5089913;27;20215;-63
2023/05/20 10:02:55;;;;;;;6.20;5.70;;;;;;;;;;5089330;28;20228;-62
2023/05/20 10:05:36;;;;;;;6.38;5.88;;;;;;;;;;5078470;27;20207;-64
2023/05/20 10:08:16;;;;;;;7.13;6.53;;;;;;;;;;5094178;28;20219;-63
2023/05/20 10:10:49;;;;;;;6.50;5.65;;;;;;;;;;5095466;28;20206;-62
2023/05/20 10:13:36;;;;;;;7.32;6.63;;;;;;;;;;5093775;28;20224;-63
2023/05/20 10:16:28;;;;;;;6.93;6.32;;;;;;;;;;5085759;27;20203;-64
2023/05/20 10:19:09;;;;;;;6.90;6.30;;;;;;;;;;5094282;27;20235;-63
2023/05/20 10:21:40;;;;;;;6.82;6.22;;;;;;;;;;5089389;27;20446;-63
2023/05/20 10:24:08;;;;;;;5.95;5.45;;;;;;;;;;5083948;27;20232;-62
2023/05/20 10:26:37;;;;;;;6.25;5.75;;;;;;;;;;5095897;27;20212;-63
2023/05/20 10:29:15;;;;;;;6.55;5.47;;;;;;;;;;5088803;28;20311;-62
2023/05/20 10:31:51;;;;;;;5.85;5.45;;;;;;;;;;5087110;27;20216;-63
2023/05/20 10:34:20;;;;;;;7.97;5.82;;;;;;;;;;5097884;27;20279;-62
2023/05/20 10:36:53;;;;;;;6.30;5.78;;;;;;;;;;5086356;27;20272;-63
2023/05/20 10:39:35;;;;;;;7.20;6.50;;;;;;;;;;5090354;27;20803;-64
2023/05/20 10:42:09;;;;;;;6.07;5.57;;;;;;;;;;5111376;27;20208;-63
2023/05/20 10:44:48;;;;;;;6.07;5.57;;;;;;;;;;5088929;27;20214;-62
2023/05/20 10:47:16;;;;;;;6.03;5.43;;;;;;;;;;5087577;27;21054;-65
2023/05/20 10:49:52;;;;;;;6.50;6.00;;;;;;;;;;5085823;28;20212;-63
2023/05/20 10:52:21;;;;;;;5.85;5.28;;;;;;;;;;5087442;27;20219;-62
2023/05/20 10:54:53;;;;;;;7.22;6.53;;;;;;;;;;5114074;27;20285;-63
2023/05/20 10:57:21;;;;;;;7.15;6.50;;;;;;;;;;5091634;27;20203;-63
2023/05/20 10:59:50;;;;;;;7.50;6.82;;;;;;;;;;5098710;27;20204;-64
2023/05/20 11:02:18;;;;;;;8.10;7.25;;;;;;;;;;5091720;27;20692;-64
2023/05/20 11:04:46;;;;;;;8.25;7.38;;;;;;;;;;5110439;27;20203;-62
2023/05/20 11:07:24;;;;;;;7.38;6.30;;;;;;;;;;5102848;27;20200;-62
2023/05/20 11:09:51;;;;;;;6.47;5.97;;;;;;;;;;5092624;27;20794;-63
2023/05/20 11:12:21;;;;;;;7.13;6.28;;;;;;;;;;5088970;27;20235;-62
2023/05/20 11:14:50;;;;;;;6.65;6.00;;;;;;;;;;5095063;27;20226;-62
2023/05/20 11:17:18;;;;;;;6.50;6.00;;;;;;;;;;5094835;27;20200;-62
2023/05/20 11:19:46;;;;;;;7.28;6.57;;;;;;;;;;5107380;27;20192;-63
2023/05/20 11:22:15;;;;;;;7.10;6.50;;;;;;;;;;5110015;27;20207;-62
2023/05/20 11:24:45;;;;;;;7.10;6.50;;;;;;;;;;5090118;27;20219;-64
2023/05/20 11:27:13;;;;;;;6.90;6.30;;;;;;;;;;5111340;27;20661;-63
2023/05/20 11:29:42;;;;;;;9.00;5.97;;;;;;;;;;5097567;27;20199;-63
2023/05/20 11:32:10;;;;;;;7.15;5.97;;;;;;;;;;5096402;27;20260;-63
2023/05/20 11:34:39;;;;;;;6.22;5.65;;;;;;;;;;5092519;27;20214;-63
2023/05/20 11:37:07;;;;;;;6.65;6.05;;;;;;;;;;5087832;27;20200;-63
2023/05/20 11:39:36;;;;;;;6.22;5.55;;;;;;;;;;5092056;27;20227;-62
2023/05/20 11:42:05;;;;;;;6.90;6.28;;;;;;;;;;5101658;27;20223;-63
2023/05/20 11:44:43;;;;;;;5.97;5.38;;;;;;;;;;5089992;27;20226;-63
2023/05/20 11:47:10;;;;;;;5.45;4.88;;;;;;;;;;5110500;27;20696;-62
2023/05/20 11:49:42;;;;;;;5.97;5.40;;;;;;;;;;5084444;27;20236;-63
2023/05/20 11:52:10;;;;;;;5.97;5.35;;;;;;;;;;5079423;27;20262;-64
2023/05/20 11:54:44;;;;;;;6.38;5.70;;;;;;;;;;5094533;27;20201;-63
2023/05/20 11:57:26;;;;;;;5.93;5.43;;;;;;;;;;5118754;27;20200;-63
2023/05/20 12:00:10;;;;;;;5.80;5.32;;;;;;;;;;5113199;27;20564;-65
2023/05/20 12:02:39;;;;;;;5.55;5.15;;;;;;;;;;5106674;22;20713;-77
2023/05/20 12:05:07;;;;;;;5.80;5.28;;;;;;;;;;5045363;28;20559;-79
2023/05/20 12:07:35;;;;;;;5.43;4.93;;;;;;;;;;5044914;28;20281;-78
2023/05/20 12:10:03;;;;;;;5.25;4.63;;;;;;;;;;5049854;28;20240;-79
2023/05/20 12:12:31;;;;;;;5.13;4.70;;;;;;;;;;5051023;28;20230;-82
2023/05/20 12:14:58;;;;;;;4.65;4.25;;;;;;;;;;5057644;28;20204;-79
2023/05/20 12:17:26;;;;;;;5.47;4.97;;;;;;;;;;5060983;28;20558;-78
2023/05/20 12:19:53;;;;;;;4.88;4.47;;;;;;;;;;5059228;28;20667;-76
2023/05/20 12:22:20;;;;;;;5.03;4.63;;;;;;;;;;5064537;28;20229;-77
2023/05/20 12:24:50;;;;;;;5.53;5.03;;;;;;;;;;5068882;28;20209;-77
2023/05/20 12:27:19;;;;;;;5.55;5.05;;;;;;;;;;5068657;28;20212;-81
2023/05/20 12:29:46;;;;;;;5.30;4.80;;;;;;;;;;5066358;28;20213;-80
2023/05/20 12:32:13;;;;;;;5.90;5.40;;;;;;;;;;5041315;28;20303;-79
2023/05/20 12:34:40;;;;;;;5.32;4.93;;;;;;;;;;5067152;28;20236;-82
2023/05/20 12:37:08;;;;;;;5.65;4.63;;;;;;;;;;5068098;28;20270;-78
2023/05/20 12:39:37;;;;;;;4.97;4.50;;;;;;;;;;5058563;28;20205;-80
2023/05/20 12:42:05;;;;;;;5.00;4.50;;;;;;;;;;5054345;28;20316;-80
2023/05/20 12:44:32;;;;;;;4.88;4.47;;;;;;;;;;5062676;28;20204;-78
2023/05/20 12:46:59;;;;;;;5.68;5.28;;;;;;;;;;5068943;28;20523;-80
2023/05/20 12:49:27;;;;;;;5.05;4.65;;;;;;;;;;5058097;28;20197;-78
2023/05/20 12:51:56;;;;;;;5.65;5.15;;;;;;;;;;5067274;28;20228;-80
2023/05/20 12:54:27;;;;;;;5.38;4.82;;;;;;;;;;5067962;28;20232;-79
2023/05/20 12:56:55;;;;;;;5.50;4.55;;;;;;;;;;5076661;28;20291;-78
2023/05/20 12:59:22;;;;;;;4.90;4.50;;;;;;;;;;5064297;28;20215;-79
2023/05/20 13:01:49;;;;;;;4.82;4.43;;;;;;;;;;5060298;28;20227;-78
2023/05/20 13:04:19;;;;;;;5.18;4.30;;;;;;;;;;5077443;28;20216;-77
2023/05/20 13:06:47;;;;;;;4.45;4.05;;;;;;;;;;5054784;28;20745;-78
2023/05/20 13:09:14;;;;;;;3.83;3.53;;;;;;;;;;5060538;28;20695;-81
2023/05/20 13:11:43;;;;;;;3.50;3.20;;;;;;;;;;5061819;28;20243;-81
2023/05/20 13:14:11;;;;;;;4.15;3.50;;;;;;;;;;5068374;28;20236;-80
2023/05/20 13:16:38;;;;;;;4.00;3.63;;;;;;;;;;5074138;28;20208;-79
2023/05/20 13:19:06;;;;;;;3.83;3.38;;;;;;;;;;5077056;28;20684;-80
2023/05/20 13:21:33;;;;;;;4.03;3.63;;;;;;;;;;5080730;28;20200;-81
2023/05/20 13:24:00;;;;;;;4.78;3.63;;;;;;;;;;5063227;28;20233;-78
2023/05/20 13:26:28;;;;;;;4.13;3.70;;;;;;;;;;5053796;28;20201;-79
2023/05/20 13:28:55;;;;;;;4.28;3.88;;;;;;;;;;5072066;28;20240;-82
2023/05/20 13:31:22;;;;;;;4.53;3.90;;;;;;;;;;5076103;28;20309;-79
2023/05/20 13:33:51;;;;;;;5.82;3.67;;;;;;;;;;5053968;28;20237;-82
2023/05/20 13:36:19;;;;;;;4.38;3.30;;;;;;;;;;5068890;28;20274;-78
2023/05/20 13:38:47;;;;;;;3.80;3.40;;;;;;;;;;5074479;28;20168;-80
2023/05/20 13:41:14;;;;;;;4.03;3.35;;;;;;;;;;5069039;28;20634;-80
2023/05/20 13:43:42;;;;;;;3.60;3.30;;;;;;;;;;5070404;28;20221;-78
2023/05/20 13:46:09;;;;;;;4.15;3.83;;;;;;;;;;5072691;28;20217;-77
2023/05/20 13:48:37;;;;;;;4.00;3.67;;;;;;;;;;5076285;28;20568;-79
2023/05/20 13:51:04;;;;;;;5.95;4.40;;;;;;;;;;5068308;28;20667;-81
2023/05/20 13:53:31;;;;;;;5.15;3.58;;;;;;;;;;5074151;28;20236;-79
2023/05/20 13:55:59;;;;;;;3.78;3.50;;;;;;;;;;5066474;28;20197;-80
2023/05/20 13:58:26;;;;;;;5.05;3.38;;;;;;;;;;5065512;28;20213;-80
2023/05/20 14:00:53;;;;;;;4.38;3.97;;;;;;;;;;5072096;28;20254;-78
2023/05/20 14:03:21;;;;;;;4.57;4.18;;;;;;;;;;5066073;28;20233;-80
2023/05/20 14:05:48;;;;;;;4.38;3.80;;;;;;;;;;5062621;28;20588;-77
2023/05/20 14:08:16;;;;;;;3.80;3.50;;;;;;;;;;5062766;28;20202;-82
2023/05/20 14:10:43;;;;;;;3.97;3.60;;;;;;;;;;5052753;28;20224;-80
2023/05/20 14:13:10;;;;;;;5.43;3.92;;;;;;;;;;5073708;28;20229;-77
2023/05/20 14:15:38;;;;;;;4.55;4.15;;;;;;;;;;5070251;28;20197;-79
2023/05/20 14:18:05;;;;;;;4.25;3.75;;;;;;;;;;5067805;28;20215;-80
2023/05/20 14:20:33;;;;;;;5.82;4.13;;;;;;;;;;5059208;28;20592;-78
2023/05/20 14:23:00;;;;;;;4.15;3.75;;;;;;;;;;5063839;28;20889;-81
2023/05/20 14:25:28;;;;;;;5.85;4.05;;;;;;;;;;5049416;28;20258;-78
2023/05/20 14:27:55;;;;;;;3.97;3.67;;;;;;;;;;5082851;28;20458;-78
2023/05/20 14:30:23;;;;;;;5.20;3.75;;;;;;;;;;5081372;28;20212;-81
2023/05/20 14:32:51;;;;;;;4.55;3.88;;;;;;;;;;5054838;28;20499;-77
2023/05/20 14:35:18;;;;;;;4.57;3.40;;;;;;;;;;5056437;28;20209;-79
2023/05/20 14:37:46;;;;;;;3.80;3.10;;;;;;;;;;5042904;28;20196;-82
2023/05/20 14:40:13;;;;;;;3.17;2.97;;;;;;;;;;5058977;28;20205;-80
2023/05/20 14:42:40;;;;;;;4.05;3.25;;;;;;;;;;5041636;28;20228;-80
2023/05/20 14:45:10;;;;;;;4.45;3.88;;;;;;;;;;5060154;28;20250;-79
2023/05/20 14:47:38;;;;;;;3.75;3.35;;;;;;;;;;5045690;28;20216;-79
2023/05/20 14:50:06;;;;;;;6.20;4.55;;;;;;;;;;5060440;28;20236;-79
2023/05/20 14:52:34;;;;;;;3.40;3.10;;;;;;;;;;5065590;28;20225;-78
2023/05/20 14:55:01;;;;;;;4.47;3.47;;;;;;;;;;5071233;28;20298;-81
2023/05/20 14:57:28;;;;;;;4.18;3.78;;;;;;;;;;5065843;28;20216;-79
2023/05/20 14:59:56;;;;;;;9.73;3.85;;;;;;;;;;5053006;28;20201;-80